On this page "live" data from an IoT device is shown. More sensors are connected to the device but to keep things clear, only a selection of the data is presented. The data is refreshed each 15 seconds. For this demo, only the last 100 entries in the database are shown, but it is easy to imagine that now that the data is available from anywhere in the world, one can use it for plotting graphs or add controls to it. Your imagination is the limit!

A short clarification of the data columns:

  • Date: date on which the data is transmitted
  • Time: time on which the data is transmitted (GMT time zone)
  • GSM: the charge percentage of the GSM battery
  • Latitude: the geo-latitude position of the IoT device
  • Longitude: the geo-longitude position of the IoT device
  • IR lux: the IR luminosity at the position of the IoT device (in arbitrary units (a.u.))
  • Visible lux: the visible light luminosity (a.u.) at the position of the IoT device
  • UV-A lux: the UV index A luminosity (a.u.)
  • Temp: the environmental temperature in degrees Celcius
  • Pressure: the environmental pressure in mbar
  • Humidity: the environmental humidity in %
  • Solar amps in: the current harvested by the solar panel (in mA)
  • Storage amps out: the current drawn from the solar storage battery (in mA)

 


...connected
Date Time GSM Latitude Longitude IR lux Visible lux UV-A lux Temp Pressure Humidity Solar amps in Storage amps out
20/06/04 02:20:39 100 51.723648 5.876845 0 0 0 24.08 999.27002 52.599998 -3.75 -3.75
20/06/04 02:20:53 100 51.723732 5.876747 0 0 0 24.08 999.27002 52.580002 -2.5 -1.25
20/06/04 02:21:11 100 51.723789 5.876745 0 0 0 24.08 999.27002 52.580002 -2.5 -3.75
20/06/04 02:22:53 100 51.723717 5.876957 0 0 0 24.07 999.27002 52.689999 -3.75 -1.25
20/06/04 02:23:08 100 51.72374 5.876865 1 0 0 24.07 999.25 52.619999 -5 -3.75
20/06/04 02:23:23 100 51.723701 5.87702 0 0 0 24.07 999.22998 52.57 -2.5 -3.75
20/06/04 02:23:38 100 51.723709 5.877043 0 0 0 24.07 999.22998 52.580002 -2.5 -2.5
20/06/04 02:23:55 100 51.723701 5.87701 0 0 0 24.07 999.25 52.619999 -5 -5
20/06/04 02:24:12 100 51.723663 5.877023 0 0 0 24.07 999.22998 52.599998 -3.75 -3.75
20/06/04 02:24:27 100 51.723629 5.876892 0 0 0 24.07 999.22998 52.57 -2.5 -5
20/06/04 02:28:35 100 51.723621 5.876985 0 0 0 24.049999 999.22998 52.689999 -3.75 -3.75
20/06/04 02:28:50 100 51.723701 5.876892 0 0 0 24.049999 999.190002 52.610001 -2.5 -3.75
20/06/04 02:29:08 100 51.723598 5.876903 0 0 0 24.040001 999.190002 52.57 -2.5 -2.5
20/06/04 02:30:42 100 51.723618 5.876843 0 0 0 24.040001 999.190002 52.66 -3.75 -3.75
20/06/04 02:48:54 100 51.723824 5.876997 0 0 0 24.02 999.210022 52.709999 -2.5 -3.75
20/06/04 02:49:09 100 51.723846 5.876948 0 0 0 24.01 999.190002 52.610001 -2.5 -3.75
20/06/04 02:49:26 100 51.723774 5.877002 1 0 0 24 999.210022 52.630001 -3.75 -3.75
20/06/04 02:51:31 100 0 0 0 0 0 23.99 999.210022 52.720001 -2.5 -3.75
20/06/04 02:51:45 100 51.724522 5.876743 0 0 0 23.98 999.210022 52.639999 -3.75 -2.5
20/06/04 02:52:00 100 51.724136 5.876782 0 1 0 23.98 999.210022 52.619999 -3.75 -2.5
20/06/04 02:52:15 100 51.724106 5.876788 0 0 0 23.98 999.210022 52.59 -2.5 -5
20/06/04 02:52:30 100 51.724052 5.876792 0 0 0 23.98 999.22998 52.59 -2.5 -2.5
20/06/04 02:52:45 100 51.7239 5.876797 0 0 0 23.98 999.22998 52.59 -3.75 -2.5
20/06/04 02:53:00 100 51.723797 5.876807 0 0 0 23.98 999.22998 52.580002 -6.25 -3.75
20/06/04 02:53:17 100 51.723782 5.876753 0 0 0 23.98 999.22998 52.57 -3.75 -3.75
20/06/04 02:55:13 100 51.723881 5.87687 0 0 0 23.98 999.22998 52.689999 -2.5 -2.5
20/06/04 02:55:28 100 51.723873 5.876807 0 0 0 23.98 999.22998 52.619999 -2.5 -5
20/06/04 02:55:42 100 51.723866 5.876802 0 0 0 23.969999 999.22998 52.580002 -2.5 -3.75
20/06/04 02:56:17 100 51.723873 5.876648 0 0 0 23.969999 999.210022 52.619999 -3.75 -2.5
20/06/04 02:56:32 100 51.723621 5.87695 0 0 0 23.98 999.210022 52.599998 -3.75 -2.5
20/06/04 02:56:47 100 51.723633 5.876983 0 0 0 23.98 999.210022 52.580002 -3.75 -3.75
20/06/04 02:57:02 100 51.723701 5.877047 0 0 0 23.98 999.210022 52.580002 -2.5 -2.5
20/06/04 02:57:19 100 51.723663 5.877003 0 0 0 23.98 999.210022 52.57 -1.25 -2.5
20/06/04 02:59:21 100 51.723835 5.876907 0 0 0 23.969999 999.150024 52.669998 -2.5 -2.5
20/06/04 02:59:36 100 51.723801 5.876793 0 0 0 23.969999 999.150024 52.59 -3.75 -2.5
20/06/04 02:59:51 100 51.723759 5.876813 1 0 0 23.969999 999.130005 52.560001 -3.75 -5
20/06/04 03:00:05 100 51.723766 5.876895 0 0 0 23.969999 999.109985 52.549999 -3.75 -3.75
20/06/04 03:00:20 100 51.723824 5.87697 0 0 0 23.969999 999.109985 52.57 -2.5 -2.5
20/06/04 03:00:35 100 51.723801 5.876973 0 0 0 23.969999 999.090027 52.57 -3.75 -2.5
20/06/04 03:00:50 100 51.723759 5.876948 0 0 0 23.969999 999.090027 52.560001 -2.5 -3.75
20/06/04 03:01:05 100 51.723717 5.876945 0 0 0 23.969999 999.070007 52.560001 -3.75 -2.5
20/06/04 03:01:19 100 51.723782 5.876947 0 0 0 23.969999 999.070007 52.560001 -2.5 -3.75
20/06/04 03:01:34 100 51.72377 5.876933 0 0 0 23.969999 999.070007 52.549999 -3.75 -2.5
20/06/04 03:02:09 100 51.723778 5.876843 0 0 0 23.969999 999.049988 52.560001 -3.75 -3.75
20/06/04 03:02:24 100 51.723614 5.876937 0 0 0 23.969999 999.049988 52.509998 -2.5 -2.5
20/06/04 03:02:38 100 51.723595 5.876995 0 0 0 23.969999 999.030029 52.509998 -2.5 -3.75
20/06/04 03:02:53 100 51.723602 5.876967 0 1 0 23.969999 999.030029 52.549999 -3.75 -3.75
20/06/04 03:03:08 100 51.723644 5.876963 0 0 0 23.969999 999.030029 52.560001 -2.5 -2.5
20/06/04 03:03:23 100 51.72364 5.87697 0 0 0 23.969999 999.030029 52.560001 -3.75 -2.5
20/06/04 03:03:38 100 51.723648 5.876963 0 0 0 23.969999 999.030029 52.52 -2.5 -2.5
20/06/04 03:03:55 100 51.72366 5.876947 0 0 0 23.969999 999.030029 52.52 -2.5 -2.5
20/06/04 03:04:12 100 51.723724 5.877005 0 0 0 23.969999 999.01001 52.540001 -3.75 -1.25
20/06/04 03:04:27 100 51.72374 5.876988 0 0 0 23.969999 999.01001 52.509998 -2.5 -3.75
20/06/04 03:04:42 100 51.723751 5.876953 0 0 0 23.969999 999.01001 52.490002 -3.75 -3.75
20/06/04 03:04:57 100 51.723717 5.876943 1 0 0 23.969999 999.01001 52.509998 -3.75 -3.75
20/06/04 03:05:12 100 51.723709 5.87702 0 0 0 23.969999 999.01001 52.540001 -2.5 -3.75
20/06/04 03:05:26 100 51.723808 5.877137 0 0 0 23.969999 999.01001 52.560001 -2.5 -2.5
20/06/04 03:05:41 100 51.723801 5.877152 0 0 0 23.969999 998.98999 52.540001 -2.5 -2.5
20/06/04 03:05:56 100 51.723766 5.877093 0 0 0 23.969999 999.01001 52.529999 -2.5 -3.75
20/06/04 03:06:11 100 51.723763 5.876938 0 0 0 23.969999 998.98999 52.560001 -3.75 -3.75
20/06/04 03:06:26 100 51.723816 5.876935 0 0 0 23.969999 998.98999 52.560001 -2.5 -2.5
20/06/04 03:06:41 100 51.723866 5.876952 0 0 0 23.969999 998.98999 52.540001 -2.5 -5
20/06/04 03:06:55 100 51.723881 5.876972 0 0 0 23.959999 998.969971 52.490002 -2.5 -5
20/06/04 03:07:10 100 51.723858 5.876948 0 0 0 23.959999 998.98999 52.529999 -2.5 -2.5
20/06/04 03:07:27 100 51.723785 5.876955 0 0 0 23.959999 998.98999 52.52 -3.75 -3.75
20/06/04 03:07:52 100 51.723721 5.877015 0 0 0 23.959999 998.98999 52.599998 -2.5 -3.75
20/06/04 03:08:07 100 51.723701 5.87695 0 0 0 23.959999 999.01001 52.599998 -3.75 -3.75
20/06/04 03:08:21 100 51.723736 5.876922 0 0 0 23.959999 999.01001 52.580002 -2.5 -2.5
20/06/04 03:08:37 100 51.723698 5.876927 0 0 0 23.959999 999.01001 52.560001 -2.5 -3.75
20/06/04 03:08:52 100 51.723637 5.87694 0 0 0 23.959999 999.01001 52.540001 -3.75 -3.75
20/06/04 03:09:09 100 51.723618 5.876982 1 0 0 23.959999 999.01001 52.57 -3.75 -2.5
20/06/04 03:09:26 100 51.723721 5.876997 0 0 0 23.950001 999.01001 52.560001 -3.75 -5
20/06/04 03:09:42 100 51.723789 5.87712 0 0 0 23.950001 999.01001 52.52 -2.5 -5
20/06/04 03:09:57 100 51.723774 5.877135 0 0 0 23.950001 999.01001 52.529999 -3.75 -3.75
20/06/04 03:10:12 100 51.72374 5.877158 0 0 0 23.950001 999.01001 52.52 -3.75 -5
20/06/04 03:10:27 100 51.723652 5.877063 0 0 0 23.950001 999.01001 52.509998 -2.5 -2.5
20/06/04 03:10:44 100 51.723614 5.87701 0 0 0 23.950001 999.01001 52.540001 -3.75 -3.75
20/06/04 03:11:01 100 51.723606 5.877003 1 0 0 23.950001 999.01001 52.549999 -2.5 -2.5
20/06/04 03:11:16 100 51.723583 5.876935 0 0 0 23.950001 999.01001 52.5 -2.5 -3.75
20/06/04 03:11:31 100 51.723553 5.87692 0 0 0 23.950001 998.98999 52.52 -3.75 -5
20/06/04 03:11:46 100 51.72356 5.87694 0 0 0 23.950001 998.98999 52.529999 -2.5 -3.75
20/06/04 03:12:01 100 51.723598 5.876988 0 0 0 23.950001 999.01001 52.52 -3.75 -3.75
20/06/04 03:12:16 100 51.723637 5.877017 0 0 0 23.950001 998.98999 52.529999 -3.75 -3.75
20/06/04 03:12:30 100 51.723618 5.876982 0 0 0 23.950001 998.98999 52.52 -3.75 -3.75
20/06/04 03:12:45 100 51.723572 5.876968 0 0 0 23.950001 999.01001 52.52 -2.5 -3.75
20/06/04 03:13:00 100 51.723618 5.876955 0 0 0 23.950001 998.98999 52.549999 -3.75 -2.5
20/06/04 03:13:15 100 51.723667 5.876972 0 0 0 23.950001 998.98999 52.57 -2.5 -3.75
20/06/04 03:13:30 100 51.723686 5.876998 0 0 0 23.950001 998.98999 52.540001 -3.75 -2.5
20/06/04 03:13:44 100 51.723709 5.877015 0 0 0 23.950001 998.98999 52.529999 -2.5 -3.75
20/06/04 03:14:02 100 51.723694 5.877035 0 0 0 23.950001 998.98999 52.529999 -3.75 -3.75
20/06/04 03:14:19 100 51.723679 5.877033 0 0 0 23.950001 999.01001 52.560001 -3.75 -2.5
20/06/04 03:16:04 99 51.723454 5.876977 0 0 0 23.940001 999.01001 52.689999 -5 -3.75
20/06/04 03:16:18 100 51.723476 5.876947 0 0 0 23.93 998.98999 52.599998 -2.5 -3.75
20/06/04 03:16:33 100 51.723469 5.87701 0 0 0 23.93 998.98999 52.560001 -2.5 -3.75
20/06/04 03:16:48 100 51.723549 5.877033 0 0 0 23.93 998.98999 52.560001 -3.75 -2.5
20/06/04 03:17:03 100 51.723557 5.877032 0 0 0 23.93 999.01001 52.560001 -5 -5
20/06/04 03:17:18 100 51.723557 5.877043 0 0 0 23.93 999.01001 52.560001 -3.75 -2.5
20/06/04 03:17:33 100 51.723637 5.87705 1 0 0 23.93 999.01001 52.549999 -2.5 -3.75
20/06/04 03:17:50 100 51.723743 5.877007 0 0 0 23.93 998.98999 52.52 -2.5 -5
20/06/04 03:19:50 100 51.723679 5.877042 0 0 0 23.92 998.98999 52.639999 -3.75 -3.75
20/06/04 03:20:05 100 51.723663 5.876987 0 0 0 23.92 998.98999 52.59 -2.5 -2.5

Mc'bedded
Idastraat 5
5431 GJ Cuijk
Dit e-mailadres wordt beveiligd tegen spambots. JavaScript dient ingeschakeld te zijn om het te bekijken.

Telephone +31 6 20 40 61 02

Chamber of Commerce Arnhem 72696311

Bank account NL73 INGB 0660 0296 77